createdAt,value
2022-12-01T00:25:08.784Z,0.60
2022-12-01T06:48:30.371Z,0.80
2022-12-01T11:29:43.132Z,1.00
2022-12-01T11:38:48.746Z,0.93
2022-12-01T11:58:58.341Z,0.60
2022-12-01T12:02:23.545Z,1.20
2022-12-01T12:05:20.674Z,0.77
2022-12-01T12:08:19.847Z,0.90
2022-12-01T12:11:23.479Z,0.60
2022-12-01T12:14:29.822Z,0.65
2022-12-01T12:17:18.323Z,1.13
2022-12-01T12:20:49.109Z,0.70
2022-12-01T12:23:19.418Z,0.70
2022-12-01T12:26:18.962Z,0.88
2022-12-01T12:29:47.745Z,1.60
2022-12-01T12:32:49.155Z,1.20
2022-12-01T12:35:42.391Z,0.68
2022-12-01T12:38:18.076Z,0.80
2022-12-01T12:41:18.468Z,0.93
2022-12-01T12:44:17.370Z,0.80
2022-12-01T12:47:17.379Z,0.98
2022-12-01T12:50:22.248Z,0.60
2022-12-01T12:53:17.771Z,0.73
2022-12-01T12:56:20.058Z,0.80
2022-12-01T12:59:19.968Z,0.60
2022-12-01T13:02:26.962Z,0.80
2022-12-01T13:05:18.891Z,0.82
2022-12-01T13:11:48.523Z,1.10
2022-12-01T13:15:17.741Z,0.93
2022-12-01T13:21:16.924Z,1.20
2022-12-01T13:23:53.629Z,0.93
2022-12-01T13:27:15.142Z,1.17
2022-12-01T13:29:55.141Z,0.88
2022-12-01T13:32:50.606Z,0.80
2022-12-01T13:35:50.198Z,1.55
2022-12-01T13:39:10.572Z,1.00
2022-12-01T13:44:45.607Z,1.27
2022-12-01T13:47:16.620Z,1.80
2022-12-01T13:49:46.352Z,1.15
2022-12-01T13:52:48.482Z,1.95
2022-12-01T13:55:18.589Z,0.73
2022-12-01T13:58:46.912Z,1.20
2022-12-01T14:06:49.420Z,1.55
2022-12-01T14:09:46.512Z,1.75
2022-12-01T14:19:53.200Z,1.77
2022-12-01T14:26:52.355Z,1.50
2022-12-01T14:29:48.105Z,0.98
2022-12-01T14:32:52.603Z,0.98
2022-12-01T14:35:49.941Z,0.70
2022-12-01T14:39:54.897Z,1.27
2022-12-01T14:45:29.397Z,1.10
2022-12-01T14:48:15.974Z,1.20
2022-12-01T14:51:26.949Z,0.98
2022-12-01T14:54:48.732Z,0.98
2022-12-01T14:57:46.486Z,1.00
2022-12-01T15:00:36.130Z,1.40
2022-12-01T15:03:17.089Z,0.90
2022-12-01T15:05:45.561Z,1.08
2022-12-01T15:08:43.593Z,1.27
2022-12-01T15:11:27.205Z,1.20
2022-12-01T15:13:56.893Z,1.85
2022-12-01T15:16:30.248Z,1.15
2022-12-01T15:18:59.095Z,1.30
2022-12-01T15:21:33.697Z,1.40
2022-12-01T15:24:26.384Z,1.70
2022-12-01T15:27:03.299Z,1.30
2022-12-01T15:29:43.910Z,2.33
2022-12-01T15:32:17.355Z,0.90
2022-12-01T15:34:48.661Z,1.17
2022-12-01T15:39:51.287Z,1.10
2022-12-01T15:42:34.008Z,1.10
2022-12-01T15:45:21.992Z,1.48
2022-12-01T15:47:52.571Z,1.98
2022-12-01T15:50:27.477Z,1.97
2022-12-01T15:52:55.787Z,1.10
2022-12-01T15:55:29.488Z,0.77
2022-12-01T15:57:59.249Z,1.48
2022-12-01T16:00:31.514Z,1.20
2022-12-01T16:03:02.203Z,1.10
2022-12-01T16:05:34.268Z,0.90
2022-12-01T16:08:16.958Z,0.82
2022-12-01T16:10:45.303Z,1.00
2022-12-01T16:13:44.545Z,0.60
2022-12-01T16:16:39.993Z,0.80
2022-12-01T16:19:14.472Z,0.70
2022-12-01T16:21:49.774Z,1.08
2022-12-01T16:24:23.589Z,0.98
2022-12-01T16:27:02.711Z,0.85
2022-12-01T16:29:36.045Z,0.80
2022-12-01T16:32:27.993Z,0.63
2022-12-01T16:34:56.251Z,0.63
2022-12-01T16:37:24.924Z,0.80
2022-12-01T16:39:53.340Z,0.77
2022-12-01T16:42:22.648Z,0.75
2022-12-01T16:44:52.604Z,0.50
2022-12-01T16:47:33.008Z,0.63
2022-12-01T16:50:04.280Z,0.60
2022-12-01T16:52:47.741Z,0.50
2022-12-01T16:55:39.871Z,0.60
2022-12-01T16:58:14.371Z,0.40
2022-12-01T17:00:42.983Z,1.00
2022-12-01T17:03:14.014Z,1.30
2022-12-01T17:05:45.094Z,0.60
2022-12-01T17:08:16.587Z,0.55
2022-12-01T17:10:47.313Z,0.25
2022-12-01T17:13:15.561Z,0.93
2022-12-01T17:15:49.201Z,0.40
2022-12-01T17:18:19.348Z,0.60
2022-12-01T17:20:56.902Z,0.80
2022-12-01T17:23:28.265Z,0.60
2022-12-01T17:25:56.571Z,0.55
2022-12-01T17:28:24.918Z,0.70
2022-12-01T17:30:53.265Z,0.70
2022-12-01T17:33:21.637Z,0.50
2022-12-01T17:35:53.343Z,0.75
2022-12-01T17:38:21.651Z,0.85
2022-12-01T17:41:01.795Z,0.80
2022-12-01T17:43:34.779Z,1.00
2022-12-01T17:46:04.051Z,0.90
2022-12-01T17:48:40.059Z,1.10
2022-12-01T17:51:11.880Z,0.85
2022-12-01T17:53:41.167Z,0.70
2022-12-01T17:56:14.830Z,0.70
2022-12-01T17:58:53.378Z,0.68
2022-12-01T18:01:26.929Z,0.60
2022-12-01T18:04:02.669Z,0.40
2022-12-01T18:06:31.838Z,0.60
2022-12-01T18:09:01.877Z,0.68
2022-12-01T18:11:30.214Z,0.40
2022-12-01T18:13:59.177Z,0.50
2022-12-01T18:16:31.556Z,0.50
2022-12-01T18:19:01.530Z,0.50
2022-12-01T18:21:32.962Z,0.45
2022-12-01T18:24:04.147Z,0.60
2022-12-01T18:26:34.296Z,0.60
2022-12-01T18:29:11.004Z,0.47
2022-12-01T18:31:39.553Z,0.47
2022-12-01T18:34:08.993Z,0.40
2022-12-01T18:36:43.362Z,0.40
2022-12-01T18:39:12.934Z,0.50
2022-12-01T18:41:44.731Z,0.38
2022-12-01T18:44:13.099Z,0.50
2022-12-01T18:46:41.961Z,0.30
2022-12-01T18:49:10.694Z,0.35
2022-12-01T18:51:40.231Z,0.40
2022-12-01T18:54:10.608Z,0.30
2022-12-01T18:56:52.707Z,0.32
2022-12-01T18:59:21.603Z,0.30
2022-12-01T19:01:49.980Z,0.50
2022-12-01T19:04:18.549Z,0.45
2022-12-01T19:06:47.626Z,0.60
2022-12-01T19:09:17.299Z,0.20
2022-12-01T19:11:45.749Z,0.30
2022-12-01T19:14:19.142Z,0.30
2022-12-01T19:16:47.864Z,0.30
2022-12-01T19:19:16.282Z,0.22
2022-12-01T19:21:46.051Z,0.30
2022-12-01T19:24:14.444Z,0.65
2022-12-01T19:26:42.673Z,0.40
2022-12-01T19:29:14.010Z,0.52
2022-12-01T19:31:42.467Z,0.80
2022-12-01T19:34:10.849Z,1.58
2022-12-01T19:36:39.497Z,0.77
2022-12-01T19:39:10.867Z,0.80
2022-12-01T19:41:42.816Z,0.60
2022-12-01T19:44:14.409Z,0.55
2022-12-01T19:46:45.535Z,0.55
2022-12-01T19:49:13.825Z,0.80
2022-12-01T19:51:45.426Z,0.50
2022-12-01T19:54:22.052Z,0.60
2022-12-01T19:56:52.228Z,0.57
2022-12-01T19:59:20.677Z,0.30
2022-12-01T20:01:51.232Z,0.40
2022-12-01T20:04:19.562Z,0.50
2022-12-01T20:06:47.848Z,0.20
2022-12-01T20:09:16.032Z,0.50
2022-12-01T20:11:44.265Z,0.30
2022-12-01T20:14:15.742Z,0.38
2022-12-01T20:19:14.746Z,0.30
2022-12-01T20:21:44.055Z,0.40
2022-12-01T20:24:15.310Z,0.60
2022-12-01T20:26:57.483Z,0.70
2022-12-01T20:29:28.453Z,0.73
2022-12-01T20:32:06.512Z,0.60
2022-12-01T20:34:42.967Z,0.50
2022-12-01T20:37:13.660Z,0.60
2022-12-01T20:39:42.255Z,0.80
2022-12-01T20:42:13.624Z,0.50
2022-12-01T20:44:44.194Z,0.38
2022-12-01T20:47:15.572Z,0.87
2022-12-01T20:49:43.766Z,0.30
2022-12-01T20:58:13.876Z,0.30
2022-12-01T21:00:48.317Z,0.60
2022-12-01T21:03:43.182Z,0.68
2022-12-01T21:09:44.207Z,0.50
2022-12-01T21:12:49.520Z,0.40
2022-12-01T21:16:13.898Z,0.60
2022-12-01T21:19:42.334Z,0.60
2022-12-01T21:22:45.029Z,0.40
2022-12-01T21:29:47.973Z,0.63
2022-12-01T21:32:44.282Z,0.50
2022-12-01T21:38:46.311Z,0.80
2022-12-01T21:42:22.450Z,0.90
2022-12-01T21:44:51.594Z,0.50
2022-12-01T21:50:50.919Z,0.55
2022-12-01T21:53:22.669Z,0.45
2022-12-01T21:55:51.249Z,0.75
2022-12-01T21:58:45.447Z,0.75
2022-12-01T22:01:45.562Z,1.00
2022-12-01T22:04:21.435Z,0.90
2022-12-01T22:09:42.989Z,0.63
2022-12-01T22:12:43.753Z,0.68
2022-12-01T22:15:43.755Z,0.75
2022-12-01T22:18:43.874Z,0.80
2022-12-01T22:21:45.355Z,0.70
2022-12-01T22:24:44.118Z,1.15
2022-12-01T22:27:43.010Z,0.90
2022-12-01T22:30:11.817Z,0.80
2022-12-01T22:33:11.988Z,0.70
2022-12-01T22:35:51.672Z,1.15
2022-12-01T22:38:44.054Z,1.02
2022-12-01T22:41:42.646Z,1.00
2022-12-01T22:44:15.483Z,1.17
2022-12-01T22:46:43.829Z,0.90
2022-12-01T22:49:30.539Z,1.00
2022-12-01T22:54:51.324Z,0.52
2022-12-01T22:57:44.844Z,0.80
2022-12-01T23:00:27.560Z,0.80
2022-12-01T23:02:57.645Z,0.60
2022-12-01T23:05:52.516Z,0.77
2022-12-01T23:08:46.778Z,1.15
2022-12-01T23:13:56.880Z,0.77
2022-12-01T23:16:43.880Z,0.77
2022-12-01T23:19:25.824Z,1.05
2022-12-01T23:22:04.295Z,0.63
2022-12-01T23:24:44.652Z,1.05
2022-12-01T23:27:47.887Z,0.98
2022-12-01T23:53:53.849Z,0.70
2022-12-01T23:58:05.145Z,1.08
2022-12-01T23:59:50.519Z,1.65
